createdAt,value
2019-05-31T00:00:33.299Z,17.08
2019-05-31T00:02:59.408Z,17.00
2019-05-31T00:05:25.283Z,17.01
2019-05-31T00:07:52.400Z,17.09
2019-05-31T00:10:18.304Z,17.03
2019-05-31T00:12:44.086Z,17.01
2019-05-31T00:15:09.984Z,16.99
2019-05-31T00:17:35.787Z,17.02
2019-05-31T00:20:04.583Z,17.04
2019-05-31T00:22:30.382Z,17.01
2019-05-31T00:24:56.195Z,17.01
2019-05-31T00:27:22.116Z,16.97
2019-05-31T00:29:47.901Z,16.97
2019-05-31T00:32:17.031Z,16.95
2019-05-31T00:34:42.855Z,16.95
2019-05-31T00:37:08.670Z,16.97
2019-05-31T00:39:34.473Z,16.90
2019-05-31T00:42:01.386Z,16.90
2019-05-31T00:44:32.998Z,16.86
2019-05-31T00:46:55.311Z,16.86
2019-05-31T00:49:21.154Z,16.84
2019-05-31T00:51:47.099Z,16.84
2019-05-31T00:54:12.846Z,16.80
2019-05-31T00:56:41.723Z,16.71
2019-05-31T00:59:07.522Z,16.55
2019-05-31T01:01:33.325Z,16.51
2019-05-31T01:03:59.122Z,16.51
2019-05-31T01:06:25.202Z,16.46
2019-05-31T01:08:51.027Z,16.51
2019-05-31T01:11:16.841Z,16.51
2019-05-31T01:13:42.677Z,15.98
2019-05-31T01:16:08.462Z,16.52
2019-05-31T01:18:34.289Z,16.50
2019-05-31T01:21:02.950Z,16.47
2019-05-31T01:23:29.043Z,16.47
2019-05-31T01:25:57.618Z,16.51
2019-05-31T01:28:23.550Z,13.82
2019-05-31T01:30:52.373Z,16.48
2019-05-31T01:33:18.437Z,16.53
2019-05-31T01:35:44.245Z,16.44
2019-05-31T01:38:10.556Z,16.45
2019-05-31T01:40:36.759Z,16.43
2019-05-31T01:43:02.700Z,16.44
2019-05-31T01:45:28.729Z,16.41
2019-05-31T01:47:54.798Z,16.44
2019-05-31T01:50:20.613Z,16.46
2019-05-31T01:52:46.416Z,16.43
2019-05-31T01:55:12.440Z,16.33
2019-05-31T01:57:38.342Z,16.46
2019-05-31T02:00:06.737Z,16.49
2019-05-31T02:02:32.652Z,16.43
2019-05-31T02:04:58.462Z,16.34
2019-05-31T02:07:24.280Z,16.36
2019-05-31T02:09:50.369Z,16.39
2019-05-31T02:12:17.299Z,16.36
2019-05-31T02:14:43.227Z,16.39
2019-05-31T02:17:09.273Z,16.30
2019-05-31T02:19:35.094Z,16.32
2019-05-31T02:22:00.904Z,16.26
2019-05-31T02:24:26.712Z,16.24
2019-05-31T02:26:52.520Z,16.24
2019-05-31T02:29:18.324Z,16.23
2019-05-31T02:31:44.099Z,16.29
2019-05-31T02:34:10.508Z,16.27
2019-05-31T02:36:36.464Z,16.25
2019-05-31T02:39:07.023Z,16.23
2019-05-31T02:41:32.984Z,16.15
2019-05-31T02:43:59.096Z,16.08
2019-05-31T02:46:24.921Z,16.07
2019-05-31T02:48:50.729Z,15.99
2019-05-31T02:51:19.308Z,16.03
2019-05-31T02:53:45.554Z,16.07
2019-05-31T02:56:12.947Z,16.06
2019-05-31T02:58:41.963Z,16.03
2019-05-31T03:01:09.452Z,15.99
2019-05-31T03:03:36.171Z,16.02
2019-05-31T03:06:05.217Z,16.03
2019-05-31T03:08:31.498Z,16.05
2019-05-31T03:10:59.413Z,16.03
2019-05-31T03:13:31.280Z,16.11
2019-05-31T03:16:07.058Z,14.08
2019-05-31T03:18:28.419Z,15.99
2019-05-31T03:20:54.234Z,15.96
2019-05-31T03:23:22.823Z,15.94
2019-05-31T03:25:47.993Z,16.02
2019-05-31T03:28:17.017Z,16.01
2019-05-31T03:30:43.336Z,15.94
2019-05-31T03:33:09.409Z,15.95
2019-05-31T03:35:38.729Z,15.98
2019-05-31T03:38:03.441Z,16.01
2019-05-31T03:40:29.256Z,16.06
2019-05-31T03:42:55.066Z,16.01
2019-05-31T03:45:22.053Z,16.04
2019-05-31T03:47:48.964Z,16.05
2019-05-31T03:50:16.734Z,16.05
2019-05-31T03:52:43.011Z,16.07
2019-05-31T03:55:08.933Z,16.10
2019-05-31T03:57:34.950Z,16.02
2019-05-31T04:00:01.062Z,16.00
2019-05-31T04:02:32.637Z,15.96
2019-05-31T04:04:58.684Z,15.86
2019-05-31T04:07:24.519Z,15.85
2019-05-31T04:09:50.426Z,15.91
2019-05-31T04:12:17.769Z,15.95
2019-05-31T04:14:43.631Z,15.55
2019-05-31T04:17:09.461Z,15.93
2019-05-31T04:19:35.234Z,15.98
2019-05-31T04:22:01.076Z,15.94
2019-05-31T04:24:27.144Z,15.80
2019-05-31T04:26:52.945Z,15.80
2019-05-31T04:29:19.860Z,15.83
2019-05-31T04:31:46.035Z,15.90
2019-05-31T04:34:11.874Z,15.98
2019-05-31T04:36:37.666Z,16.03
2019-05-31T04:39:06.025Z,16.08
2019-05-31T04:41:31.872Z,15.53
2019-05-31T04:43:59.036Z,16.11
2019-05-31T04:46:26.681Z,16.08
2019-05-31T04:48:52.658Z,16.04
2019-05-31T04:51:20.230Z,16.07
2019-05-31T04:53:46.231Z,16.06
2019-05-31T04:56:12.311Z,16.05
2019-05-31T04:58:38.124Z,16.07
2019-05-31T05:01:04.192Z,16.08
2019-05-31T05:03:30.558Z,16.11
2019-05-31T05:05:56.448Z,16.08
2019-05-31T05:08:22.823Z,16.06
2019-05-31T05:10:48.680Z,15.93
2019-05-31T05:13:14.513Z,15.95
2019-05-31T05:15:40.413Z,15.93
2019-05-31T05:18:06.247Z,15.99
2019-05-31T05:20:32.066Z,16.03
2019-05-31T05:22:58.182Z,16.08
2019-05-31T05:25:25.133Z,16.18
2019-05-31T05:27:51.000Z,16.21
2019-05-31T05:30:17.576Z,16.21
2019-05-31T05:32:43.649Z,16.27
2019-05-31T05:35:09.449Z,16.34
2019-05-31T05:37:35.254Z,16.43
2019-05-31T05:40:01.339Z,16.32
2019-05-31T05:42:27.154Z,16.35
2019-05-31T05:44:52.975Z,16.33
2019-05-31T05:47:19.263Z,16.37
2019-05-31T05:49:45.142Z,16.36
2019-05-31T05:52:10.936Z,16.26
2019-05-31T05:54:36.755Z,16.23
2019-05-31T05:57:03.003Z,16.29
2019-05-31T05:59:29.504Z,16.38
2019-05-31T06:01:55.350Z,16.32
2019-05-31T06:04:21.734Z,16.43
2019-05-31T06:06:47.846Z,16.60
2019-05-31T06:09:13.636Z,16.71
2019-05-31T06:11:39.471Z,16.85
2019-05-31T06:14:05.250Z,16.90
2019-05-31T06:16:50.246Z,16.88
2019-05-31T06:18:59.043Z,16.90
2019-05-31T06:21:26.325Z,16.94
2019-05-31T06:23:53.698Z,16.97
2019-05-31T06:26:19.496Z,17.08
2019-05-31T06:28:45.562Z,17.08
2019-05-31T06:31:11.368Z,17.11
2019-05-31T06:33:37.223Z,17.29
2019-05-31T06:36:03.511Z,17.39
2019-05-31T06:38:37.060Z,17.47
2019-05-31T06:41:02.920Z,17.45
2019-05-31T06:43:33.584Z,17.53
2019-05-31T06:45:56.697Z,17.54
2019-05-31T06:48:22.502Z,17.55
2019-05-31T06:50:48.313Z,17.60
2019-05-31T06:53:14.149Z,17.62
2019-05-31T06:55:40.313Z,17.74
2019-05-31T06:58:06.142Z,17.81
2019-05-31T07:00:33.260Z,17.90
2019-05-31T07:02:59.637Z,17.91
2019-05-31T07:05:25.443Z,18.02
2019-05-31T07:07:51.331Z,18.13
2019-05-31T07:10:17.605Z,18.10
2019-05-31T07:12:46.728Z,18.04
2019-05-31T07:15:13.029Z,18.04
2019-05-31T07:17:54.463Z,18.38
2019-05-31T07:20:11.936Z,18.37
2019-05-31T07:22:38.947Z,18.47
2019-05-31T07:25:07.747Z,18.53
2019-05-31T07:27:33.563Z,18.56
2019-05-31T07:29:59.624Z,18.56
2019-05-31T07:32:31.781Z,18.63
2019-05-31T07:34:57.604Z,18.03
2019-05-31T07:37:31.878Z,18.71
2019-05-31T07:39:51.134Z,18.84
2019-05-31T07:42:16.984Z,18.84
2019-05-31T07:44:42.845Z,18.94
2019-05-31T07:47:08.944Z,18.96
2019-05-31T07:49:36.032Z,19.02
2019-05-31T07:52:01.895Z,19.14
2019-05-31T07:54:27.680Z,19.14
2019-05-31T07:56:53.768Z,19.19
2019-05-31T07:59:19.591Z,19.27
2019-05-31T08:01:45.686Z,19.30
2019-05-31T08:04:11.614Z,19.47
2019-05-31T08:06:38.747Z,19.50
2019-05-31T08:09:06.236Z,19.74
2019-05-31T08:11:33.242Z,19.88
2019-05-31T08:13:59.176Z,20.01
2019-05-31T08:16:25.334Z,19.92
2019-05-31T08:18:51.217Z,20.37
2019-05-31T08:21:17.157Z,20.47
2019-05-31T08:23:43.240Z,20.69
2019-05-31T08:26:25.278Z,21.07
2019-05-31T08:28:36.736Z,21.21
2019-05-31T08:31:02.913Z,21.13
2019-05-31T08:33:28.708Z,21.22
2019-05-31T08:35:54.490Z,21.55
2019-05-31T08:38:20.299Z,21.77
2019-05-31T08:40:46.114Z,21.88
2019-05-31T08:43:11.924Z,21.83
2019-05-31T08:45:37.811Z,21.99
2019-05-31T08:48:03.839Z,21.76
2019-05-31T08:50:29.659Z,21.83
2019-05-31T08:52:57.363Z,22.10
2019-05-31T08:55:23.224Z,22.40
2019-05-31T08:57:49.006Z,22.37
2019-05-31T09:00:15.429Z,22.36
2019-05-31T09:02:41.257Z,22.56
2019-05-31T09:05:07.489Z,22.36
2019-05-31T09:07:34.213Z,22.63
2019-05-31T09:10:00.121Z,22.79
2019-05-31T09:12:26.173Z,22.55
2019-05-31T09:14:57.675Z,22.39
2019-05-31T09:17:23.476Z,22.67
2019-05-31T09:19:58.685Z,23.27
2019-05-31T09:22:16.988Z,23.59
2019-05-31T09:24:42.796Z,23.52
2019-05-31T09:27:08.609Z,23.58
2019-05-31T09:29:51.653Z,22.54
2019-05-31T09:32:02.410Z,22.43
2019-05-31T09:34:28.497Z,22.54
2019-05-31T09:36:54.558Z,22.85
2019-05-31T09:39:20.333Z,22.88
2019-05-31T09:41:46.438Z,23.25
2019-05-31T09:44:12.228Z,23.30
2019-05-31T09:46:38.015Z,23.20
2019-05-31T09:49:04.107Z,23.33
2019-05-31T09:51:32.001Z,22.99
2019-05-31T09:53:57.712Z,23.38
2019-05-31T09:56:23.599Z,23.88
2019-05-31T09:58:49.435Z,24.50
2019-05-31T10:01:18.394Z,25.01
2019-05-31T10:03:47.111Z,25.28
2019-05-31T10:06:13.162Z,24.41
2019-05-31T10:08:41.918Z,24.75
2019-05-31T10:11:06.659Z,24.23
2019-05-31T10:13:33.598Z,24.36
2019-05-31T10:16:00.459Z,24.66
2019-05-31T10:18:26.270Z,24.59
2019-05-31T10:20:52.072Z,24.40
2019-05-31T10:23:31.936Z,23.84
2019-05-31T10:25:45.616Z,23.72
2019-05-31T10:28:11.402Z,23.55
2019-05-31T10:30:37.549Z,23.98
2019-05-31T10:33:03.367Z,24.93
2019-05-31T10:35:29.152Z,25.20
2019-05-31T10:37:54.963Z,25.36
2019-05-31T10:40:20.772Z,25.30
2019-05-31T10:42:46.546Z,24.79
2019-05-31T10:45:14.699Z,25.08
2019-05-31T10:47:42.130Z,25.11
2019-05-31T10:50:14.150Z,24.96
2019-05-31T10:52:42.623Z,24.65
2019-05-31T10:55:08.556Z,24.68
2019-05-31T10:57:34.379Z,25.33
2019-05-31T11:00:00.418Z,25.46
2019-05-31T11:02:26.224Z,25.59
2019-05-31T11:04:52.022Z,25.96
2019-05-31T11:07:18.103Z,25.96
2019-05-31T11:09:47.194Z,25.66
2019-05-31T11:12:13.010Z,25.62
2019-05-31T11:14:39.172Z,26.74
2019-05-31T11:17:05.030Z,26.93
2019-05-31T11:19:31.606Z,26.49
2019-05-31T11:21:57.405Z,26.19
2019-05-31T11:24:23.303Z,25.81
2019-05-31T11:26:49.629Z,25.32
2019-05-31T11:29:16.606Z,25.13
2019-05-31T11:31:42.696Z,25.05
2019-05-31T11:34:08.505Z,24.57
2019-05-31T11:36:34.430Z,24.49
2019-05-31T11:39:00.443Z,24.35
2019-05-31T11:41:26.539Z,24.13
2019-05-31T11:43:52.325Z,24.05
2019-05-31T11:46:18.177Z,24.22
2019-05-31T11:48:45.538Z,24.50
2019-05-31T11:51:28.066Z,25.14
2019-05-31T11:53:45.270Z,25.10
2019-05-31T11:56:06.776Z,24.59
2019-05-31T11:58:32.562Z,24.71
2019-05-31T12:00:58.377Z,25.03
2019-05-31T12:03:24.170Z,25.46
2019-05-31T12:05:49.999Z,25.66
2019-05-31T12:08:16.088Z,25.80
2019-05-31T12:10:42.658Z,25.63
2019-05-31T12:13:08.892Z,25.66
2019-05-31T12:15:34.744Z,25.80
2019-05-31T12:18:00.541Z,26.01
2019-05-31T12:20:26.591Z,26.12
2019-05-31T12:22:52.416Z,26.27
2019-05-31T12:25:18.854Z,26.19
2019-05-31T12:27:45.217Z,26.04
2019-05-31T12:30:21.390Z,26.11
2019-05-31T12:32:40.183Z,26.11
2019-05-31T12:35:06.123Z,26.25
2019-05-31T12:37:32.055Z,26.43
2019-05-31T12:39:57.833Z,26.96
2019-05-31T12:42:23.638Z,27.54
2019-05-31T12:44:49.440Z,27.69
2019-05-31T12:47:15.330Z,28.03
2019-05-31T12:49:42.248Z,27.93
2019-05-31T12:52:08.141Z,28.02
2019-05-31T12:54:33.970Z,27.91
2019-05-31T12:56:59.773Z,27.66
2019-05-31T12:59:25.618Z,28.23
2019-05-31T13:01:51.700Z,28.80
2019-05-31T13:04:17.778Z,29.04
2019-05-31T13:06:43.876Z,29.08
2019-05-31T13:09:09.671Z,29.62
2019-05-31T13:11:35.929Z,29.94
2019-05-31T13:14:01.773Z,30.30
2019-05-31T13:16:27.551Z,30.15
2019-05-31T13:18:54.105Z,30.18
2019-05-31T13:21:19.940Z,30.14
2019-05-31T13:23:46.279Z,29.38
2019-05-31T13:26:12.107Z,29.19
2019-05-31T13:28:38.071Z,29.66
2019-05-31T13:31:03.943Z,30.03
2019-05-31T13:33:30.027Z,29.99
2019-05-31T13:35:56.292Z,29.87
2019-05-31T13:38:22.865Z,29.53
2019-05-31T13:40:49.460Z,29.47
2019-05-31T13:43:15.388Z,29.90
2019-05-31T13:45:41.177Z,30.08
2019-05-31T13:48:09.988Z,29.15
2019-05-31T13:50:34.718Z,28.00
2019-05-31T13:53:00.561Z,27.46
2019-05-31T13:55:26.335Z,27.24
2019-05-31T13:57:52.995Z,26.98
2019-05-31T14:00:19.258Z,26.61
2019-05-31T14:02:45.332Z,25.77
2019-05-31T14:05:12.786Z,24.90
2019-05-31T14:07:38.911Z,25.37
2019-05-31T14:10:05.307Z,25.08
2019-05-31T14:12:31.104Z,25.05
2019-05-31T14:14:56.889Z,24.64
2019-05-31T14:17:22.963Z,24.59
2019-05-31T14:19:48.760Z,24.72
2019-05-31T14:22:14.593Z,24.91
2019-05-31T14:24:40.634Z,25.38
2019-05-31T14:27:06.451Z,25.10
2019-05-31T14:29:32.243Z,25.36
2019-05-31T14:32:02.403Z,25.39
2019-05-31T14:34:28.620Z,25.73
2019-05-31T14:36:54.436Z,25.84
2019-05-31T14:39:20.230Z,25.84
2019-05-31T14:41:46.334Z,25.92
2019-05-31T14:44:12.153Z,26.09
2019-05-31T14:46:37.979Z,26.09
2019-05-31T14:49:09.969Z,26.70
2019-05-31T14:51:31.607Z,26.92
2019-05-31T14:53:57.660Z,27.06
2019-05-31T14:56:23.477Z,27.25
2019-05-31T14:58:50.612Z,27.78
2019-05-31T15:01:16.481Z,27.13
2019-05-31T15:03:42.288Z,27.55
2019-05-31T15:06:08.344Z,27.04
2019-05-31T15:08:34.359Z,27.15
2019-05-31T15:11:02.884Z,27.86
2019-05-31T15:13:28.595Z,28.05
2019-05-31T15:15:54.685Z,27.61
2019-05-31T15:18:21.048Z,27.45
2019-05-31T15:20:46.868Z,27.50
2019-05-31T15:23:12.670Z,27.52
2019-05-31T15:25:38.733Z,27.32
2019-05-31T15:28:04.752Z,27.27
2019-05-31T15:30:43.836Z,27.32
2019-05-31T15:33:22.977Z,27.50
2019-05-31T15:35:55.634Z,27.38
2019-05-31T15:38:21.594Z,26.65
2019-05-31T15:40:51.212Z,26.87
2019-05-31T15:43:17.112Z,26.79
2019-05-31T15:45:42.967Z,26.60
2019-05-31T15:48:09.045Z,26.43
2019-05-31T15:50:34.833Z,26.48
2019-05-31T15:53:10.205Z,26.47
2019-05-31T15:55:28.873Z,26.40
2019-05-31T15:57:55.313Z,26.07
2019-05-31T16:00:36.071Z,26.03
2019-05-31T16:03:02.257Z,25.63
2019-05-31T16:05:28.082Z,25.65
2019-05-31T16:07:53.864Z,25.74
2019-05-31T16:10:19.775Z,25.93
2019-05-31T16:12:45.841Z,26.23
2019-05-31T16:15:12.023Z,26.32
2019-05-31T16:17:37.822Z,26.33
2019-05-31T16:20:05.478Z,26.13
2019-05-31T16:22:31.326Z,25.72
2019-05-31T16:24:57.413Z,25.55
2019-05-31T16:27:23.181Z,24.96
2019-05-31T16:29:49.230Z,25.02
2019-05-31T16:32:15.329Z,25.23
2019-05-31T16:34:41.131Z,25.22
2019-05-31T16:37:06.961Z,25.30
2019-05-31T16:39:32.989Z,25.27
2019-05-31T16:41:59.361Z,25.11
2019-05-31T16:44:25.484Z,24.86
2019-05-31T16:46:51.283Z,24.76
2019-05-31T16:49:17.368Z,24.61
2019-05-31T16:51:43.159Z,24.42
2019-05-31T16:54:22.844Z,24.50
2019-05-31T16:56:36.683Z,24.45
2019-05-31T16:59:03.404Z,24.62
2019-05-31T17:01:32.497Z,24.77
2019-05-31T17:03:58.313Z,24.58
2019-05-31T17:06:24.369Z,24.25
2019-05-31T17:08:50.188Z,24.11
2019-05-31T17:11:16.024Z,23.95
2019-05-31T17:13:41.838Z,24.08
2019-05-31T17:16:09.014Z,24.15
2019-05-31T17:18:35.352Z,24.19
2019-05-31T17:21:01.944Z,24.35
2019-05-31T17:23:27.869Z,24.42
2019-05-31T17:25:54.121Z,24.52
2019-05-31T17:28:20.303Z,24.52
2019-05-31T17:30:46.196Z,24.51
2019-05-31T17:33:12.121Z,24.45
2019-05-31T17:35:38.143Z,24.47
2019-05-31T17:38:05.447Z,24.45
2019-05-31T17:40:31.383Z,24.50
2019-05-31T17:42:57.169Z,24.38
2019-05-31T17:45:23.147Z,24.34
2019-05-31T17:47:48.913Z,24.35
2019-05-31T17:50:14.828Z,24.19
2019-05-31T17:52:40.908Z,24.17
2019-05-31T17:55:06.783Z,24.13
2019-05-31T17:57:43.362Z,24.14
2019-05-31T18:00:00.531Z,24.02
2019-05-31T18:02:26.316Z,23.93
2019-05-31T18:04:52.141Z,23.84
2019-05-31T18:07:17.937Z,23.77
2019-05-31T18:09:43.769Z,23.66
2019-05-31T18:12:10.650Z,23.62
2019-05-31T18:14:36.563Z,23.63
2019-05-31T18:17:02.730Z,23.52
2019-05-31T18:19:28.542Z,23.38
2019-05-31T18:21:57.627Z,23.24
2019-05-31T18:27:02.431Z,23.21
2019-05-31T18:29:28.491Z,22.93
2019-05-31T18:31:54.293Z,22.85
2019-05-31T18:34:20.092Z,22.78
2019-05-31T18:36:46.359Z,22.75
2019-05-31T18:39:12.287Z,22.65
2019-05-31T18:41:38.374Z,22.53
2019-05-31T18:44:04.325Z,22.49
2019-05-31T18:46:30.171Z,22.38
2019-05-31T18:48:55.956Z,22.28
2019-05-31T18:51:24.873Z,22.23
2019-05-31T18:53:50.629Z,22.16
2019-05-31T18:56:21.886Z,22.09
2019-05-31T18:58:47.726Z,22.02
2019-05-31T19:01:14.917Z,21.91
2019-05-31T19:03:40.951Z,21.79
2019-05-31T19:06:06.745Z,21.70
2019-05-31T19:08:32.596Z,21.66
2019-05-31T19:10:58.401Z,21.55
2019-05-31T19:13:27.407Z,21.51
2019-05-31T19:15:53.197Z,21.31
2019-05-31T19:18:22.050Z,21.29
2019-05-31T19:21:00.365Z,21.14
2019-05-31T19:23:15.920Z,20.94
2019-05-31T19:25:50.306Z,20.84
2019-05-31T19:28:15.815Z,20.83
2019-05-31T19:30:43.289Z,20.84
2019-05-31T19:33:09.760Z,20.76
2019-05-31T19:35:35.668Z,20.71
2019-05-31T19:38:01.699Z,20.54
2019-05-31T19:40:27.735Z,20.51
2019-05-31T19:42:53.559Z,20.46
2019-05-31T19:45:20.671Z,20.39
2019-05-31T19:47:46.564Z,20.35
2019-05-31T19:50:19.648Z,20.23
2019-05-31T19:52:43.887Z,20.11
2019-05-31T19:55:09.817Z,19.93
2019-05-31T19:57:35.870Z,19.93
2019-05-31T20:00:02.177Z,19.84
2019-05-31T20:02:28.194Z,19.69
2019-05-31T20:04:57.038Z,19.65
2019-05-31T20:07:23.737Z,19.68
2019-05-31T20:09:51.149Z,19.59
2019-05-31T20:12:19.625Z,19.44
2019-05-31T20:14:44.956Z,19.42
2019-05-31T20:17:11.620Z,19.39
2019-05-31T20:19:37.853Z,19.38
2019-05-31T20:22:03.714Z,19.40
2019-05-31T20:24:29.451Z,19.21
2019-05-31T20:26:58.288Z,19.25
2019-05-31T20:29:25.768Z,19.18
2019-05-31T20:31:52.345Z,19.15
2019-05-31T20:34:19.797Z,19.12
2019-05-31T20:36:45.869Z,19.03
2019-05-31T20:39:11.668Z,19.02
2019-05-31T20:41:42.949Z,19.02
2019-05-31T20:44:09.033Z,18.97
2019-05-31T20:46:36.208Z,18.88
2019-05-31T20:49:02.045Z,18.78
2019-05-31T20:51:31.137Z,18.78
2019-05-31T20:53:57.231Z,18.76
2019-05-31T20:56:23.946Z,18.63
2019-05-31T20:58:49.734Z,18.63
2019-05-31T21:01:15.552Z,18.60
2019-05-31T21:03:42.771Z,18.56
2019-05-31T21:06:08.594Z,18.48
2019-05-31T21:08:37.410Z,18.39
2019-05-31T21:11:03.248Z,18.43
2019-05-31T21:13:32.380Z,18.35
2019-05-31T21:15:58.200Z,18.38
2019-05-31T21:18:28.214Z,18.28
2019-05-31T21:20:54.361Z,18.18
2019-05-31T21:23:22.388Z,18.11
2019-05-31T21:25:48.267Z,18.09
2019-05-31T21:28:15.599Z,18.09
2019-05-31T21:30:41.417Z,18.01
2019-05-31T21:33:07.246Z,18.01
2019-05-31T21:35:33.870Z,17.96
2019-05-31T21:37:59.785Z,17.90
2019-05-31T21:40:29.103Z,17.82
2019-05-31T21:42:54.939Z,17.77
2019-05-31T21:45:23.505Z,17.75
2019-05-31T21:47:49.581Z,17.80
2019-05-31T21:50:20.292Z,17.80
2019-05-31T21:52:46.123Z,17.65
2019-05-31T21:55:12.429Z,17.65
2019-05-31T21:57:38.285Z,17.58
2019-05-31T22:00:13.833Z,17.58
2019-05-31T22:02:40.306Z,17.43
2019-05-31T22:05:06.323Z,17.43
2019-05-31T22:07:32.518Z,17.36
2019-05-31T22:09:58.351Z,17.34
2019-05-31T22:12:24.475Z,17.34
2019-05-31T22:14:50.297Z,17.24
2019-05-31T22:17:16.104Z,17.22
2019-05-31T22:19:41.927Z,17.06
2019-05-31T22:22:07.754Z,16.99
2019-05-31T22:24:34.681Z,17.02
2019-05-31T22:27:02.396Z,16.95
2019-05-31T22:29:28.879Z,16.95
2019-05-31T22:31:59.727Z,16.98
2019-05-31T22:34:25.520Z,16.98
2019-05-31T22:36:51.395Z,16.98
2019-05-31T22:39:17.159Z,16.93
2019-05-31T22:41:48.470Z,16.97
2019-05-31T22:44:14.572Z,16.96
2019-05-31T22:46:41.076Z,16.87
2019-05-31T22:49:07.290Z,16.85
2019-05-31T22:51:33.374Z,16.84
2019-05-31T22:53:59.203Z,16.74
2019-05-31T22:56:25.249Z,16.67
2019-05-31T22:58:53.825Z,16.60
2019-05-31T23:01:19.640Z,16.60
2019-05-31T23:03:48.243Z,16.59
2019-05-31T23:06:14.020Z,16.50
2019-05-31T23:08:43.451Z,16.47
2019-05-31T23:11:09.255Z,16.43
2019-05-31T23:13:38.413Z,16.46
2019-05-31T23:16:04.339Z,16.44
2019-05-31T23:18:33.223Z,16.36
2019-05-31T23:20:59.044Z,16.22
2019-05-31T23:23:25.126Z,16.13
2019-05-31T23:25:50.951Z,16.12
2019-05-31T23:28:16.755Z,16.13
2019-05-31T23:30:44.116Z,16.11
2019-05-31T23:33:09.985Z,16.20
2019-05-31T23:35:39.467Z,16.17
2019-05-31T23:38:05.336Z,16.12
2019-05-31T23:40:33.917Z,16.06
2019-05-31T23:42:59.723Z,16.07
2019-05-31T23:45:28.545Z,16.05
2019-05-31T23:47:54.364Z,16.01
2019-05-31T23:50:23.252Z,15.94
2019-05-31T23:52:49.046Z,15.86
2019-05-31T23:55:17.982Z,15.74
2019-05-31T23:57:44.143Z,15.74
